Time;durP1;ratioP1;P1;durP2;ratioP2;P2;SDS_P1;SDS_P2;PMS_P1;PMS_P2;Temp;Humidity;BMP_temperature;BMP_pressure;BME280_temperature;BME280_humidity;BME280_pressure;Samples;Min_cycle;Max_cycle;Signal;HPM_P1;HPM_P2
2023/10/05 00:00:46;;;;;;;2.07;0.90;;;16.70;80.30;;;;;;4989450;28;20021;-16
2023/10/05 00:03:11;;;;;;;1.67;0.80;;;16.70;80.30;;;;;;4992417;28;20030;-16
2023/10/05 00:05:37;;;;;;;2.25;0.80;;;16.70;80.30;;;;;;4993748;28;20479;-16
2023/10/05 00:08:04;;;;;;;1.10;0.60;;;16.60;80.30;;;;;;5010310;28;20114;-16
2023/10/05 00:10:33;;;;;;;3.00;0.70;;;16.60;80.40;;;;;;4999902;28;20228;-16
2023/10/05 00:13:05;;;;;;;1.45;0.70;;;16.60;80.40;;;;;;4999689;28;20121;-16
2023/10/05 00:15:32;;;;;;;2.53;0.88;;;16.60;80.40;;;;;;4973122;28;20133;-16
2023/10/05 00:17:58;;;;;;;2.73;0.83;;;16.50;80.30;;;;;;4988032;28;20091;-17
2023/10/05 00:20:33;;;;;;;1.77;0.63;;;16.50;80.40;;;;;;4989062;28;20057;-16
2023/10/05 00:23:03;;;;;;;1.08;0.60;;;16.50;80.40;;;;;;4993465;28;20060;-16
2023/10/05 00:25:32;;;;;;;1.15;0.70;;;16.50;80.40;;;;;;4998591;28;20026;-16
2023/10/05 00:28:00;;;;;;;1.45;0.68;;;16.40;80.60;;;;;;5008631;28;20021;-16
2023/10/05 00:30:26;;;;;;;2.17;0.60;;;16.40;80.40;;;;;;4976069;28;20075;-16
2023/10/05 00:32:58;;;;;;;2.15;0.80;;;16.40;80.70;;;;;;5004907;28;20026;-16
2023/10/05 00:35:28;;;;;;;1.65;0.80;;;16.30;80.60;;;;;;5007970;28;20372;-16
2023/10/05 00:37:59;;;;;;;3.40;0.80;;;16.30;80.60;;;;;;4995423;28;20025;-16
2023/10/05 00:40:42;;;;;;;2.10;0.77;;;16.30;80.80;;;;;;4977759;28;20034;-16
2023/10/05 00:45:47;;;;;;;2.25;0.90;;;16.20;80.80;;;;;;4996037;28;20339;-16
2023/10/05 00:51:26;;;;;;;2.03;0.80;;;16.20;81.20;;;;;;4972903;28;20061;-16
2023/10/05 00:53:53;;;;;;;1.37;0.80;;;16.10;81.00;;;;;;4993175;28;20041;-16
2023/10/05 00:56:23;;;;;;;2.20;0.80;;;16.20;81.30;;;;;;4978642;28;20045;-16
2023/10/05 00:58:54;;;;;;;1.88;0.98;;;16.10;81.30;;;;;;4991631;28;20028;-16
2023/10/05 01:01:27;;;;;;;1.38;0.70;;;16.10;81.30;;;;;;4999826;28;20529;-16
2023/10/05 01:04:18;;;;;;;1.33;0.63;;;16.10;81.50;;;;;;4999301;28;20446;-16
2023/10/05 01:06:54;;;;;;;2.23;0.97;;;16.10;81.50;;;;;;4988711;28;20109;-16
2023/10/05 01:12:11;;;;;;;2.75;0.85;;;16.10;81.50;;;;;;5001148;28;20381;-16
2023/10/05 01:14:46;;;;;;;1.77;0.80;;;16.10;81.50;;;;;;4990516;28;20660;-16
2023/10/05 01:17:12;;;;;;;2.03;0.90;;;16.10;82.50;;;;;;5008435;28;20021;-16
2023/10/05 01:19:39;;;;;;;1.23;0.80;;;16.00;81.50;;;;;;4987347;28;20030;-18
2023/10/05 01:22:13;;;;;;;1.58;0.73;;;16.10;81.50;;;;;;4966572;28;20023;-16
2023/10/05 01:24:38;;;;;;;2.38;0.77;;;16.10;82.40;;;;;;4994519;28;20132;-16
2023/10/05 01:27:04;;;;;;;2.17;0.90;;;16.00;81.60;;;;;;4984334;28;20156;-17
2023/10/05 01:29:30;;;;;;;1.85;0.80;;;16.00;81.80;;;;;;5007866;28;20138;-16
2023/10/05 01:31:56;;;;;;;2.40;0.85;;;16.00;81.80;;;;;;4990485;28;20025;-16
2023/10/05 01:34:22;;;;;;;2.37;0.70;;;16.00;81.70;;;;;;4994019;28;20518;-16
2023/10/05 01:36:48;;;;;;;2.35;0.85;;;15.90;81.70;;;;;;4981750;28;20494;-16
2023/10/05 01:39:18;;;;;;;1.77;0.80;;;15.90;81.70;;;;;;4996043;28;20035;-16
2023/10/05 01:41:46;;;;;;;1.35;0.70;;;15.90;81.80;;;;;;4971082;28;21476;-16
2023/10/05 01:44:13;;;;;;;1.63;0.80;;;15.90;81.90;;;;;;4988169;28;20072;-16
2023/10/05 01:46:40;;;;;;;1.63;0.70;;;15.90;81.90;;;;;;4990775;28;20025;-16
2023/10/05 01:49:06;;;;;;;1.17;0.68;;;15.90;82.00;;;;;;4977800;28;20369;-16
2023/10/05 01:51:31;;;;;;;1.10;0.53;;;15.90;82.00;;;;;;4991628;28;20049;-16
2023/10/05 01:54:05;;;;;;;1.80;0.68;;;15.90;82.00;;;;;;4979294;28;20246;-17
2023/10/05 01:56:32;;;;;;;2.40;0.88;;;15.90;82.10;;;;;;5007925;28;20112;-16
2023/10/05 01:59:00;;;;;;;0.93;0.60;;;15.90;82.30;;;;;;4980901;28;20652;-16
2023/10/05 02:01:28;;;;;;;2.40;0.77;;;15.90;82.40;;;;;;4994323;28;20025;-16
2023/10/05 02:03:54;;;;;;;1.73;0.70;;;15.90;82.60;;;;;;4981185;28;20345;-17
2023/10/05 02:06:21;;;;;;;1.65;0.68;;;15.90;82.50;;;;;;4992798;28;20025;-17
2023/10/05 02:08:47;;;;;;;1.00;0.60;;;15.90;82.70;;;;;;4962477;28;20505;-16
2023/10/05 02:11:23;;;;;;;3.40;0.90;;;16.00;82.80;;;;;;5010380;28;20021;-17
2023/10/05 02:13:49;;;;;;;1.75;0.80;;;16.00;83.30;;;;;;4964863;28;20033;-16
2023/10/05 02:16:24;;;;;;;2.45;0.80;;;16.00;82.90;;;;;;5009970;28;20385;-17
2023/10/05 02:18:50;;;;;;;1.77;0.63;;;16.00;82.80;;;;;;4991338;28;20101;-16
2023/10/05 02:21:53;;;;;;;1.77;0.70;;;16.00;82.80;;;;;;4979154;28;20394;-16
2023/10/05 02:24:17;;;;;;;2.03;0.80;;;16.10;83.00;;;;;;5001519;28;20304;-16
2023/10/05 02:29:31;;;;;;;1.48;0.80;;;16.20;83.00;;;;;;4980378;28;20414;-16
2023/10/05 02:34:41;;;;;;;1.65;0.75;;;16.20;82.90;;;;;;5010417;28;20089;-17
2023/10/05 02:37:10;;;;;;;1.08;0.60;;;16.20;82.90;;;;;;4984894;28;20107;-16
2023/10/05 02:39:37;;;;;;;0.82;0.80;;;16.20;82.90;;;;;;5005878;28;20021;-16
2023/10/05 02:42:14;;;;;;;0.85;0.75;;;16.20;82.90;;;;;;4991706;28;20567;-16
2023/10/05 02:44:43;;;;;;;1.70;0.80;;;16.20;83.10;;;;;;4975942;28;20442;-16
2023/10/05 02:47:10;;;;;;;2.30;0.80;;;16.20;83.10;;;;;;4992051;28;20039;-16
2023/10/05 02:49:43;;;;;;;2.65;1.30;;;16.20;83.70;;;;;;5009712;28;20379;-16
2023/10/05 02:52:13;;;;;;;1.52;0.68;;;16.20;83.00;;;;;;4999353;28;20041;-16
2023/10/05 02:54:40;;;;;;;2.63;0.95;;;16.20;83.00;;;;;;4982286;28;20050;-16
2023/10/05 02:57:16;;;;;;;2.20;0.90;;;16.20;83.20;;;;;;5008754;28;20237;-16
2023/10/05 02:59:46;;;;;;;1.63;0.70;;;16.20;83.30;;;;;;4975073;28;20117;-16
2023/10/05 03:02:16;;;;;;;1.60;0.90;;;16.20;83.20;;;;;;4981589;28;20051;-16
2023/10/05 03:04:58;;;;;;;1.45;0.75;;;16.20;83.10;;;;;;4988501;28;20508;-16
2023/10/05 03:07:25;;;;;;;2.47;1.00;;;16.20;83.10;;;;;;4980852;28;20029;-16
2023/10/05 03:09:52;;;;;;;1.70;0.80;;;16.20;83.10;;;;;;4975468;28;20220;-16
2023/10/05 03:12:21;;;;;;;1.92;0.90;;;16.20;83.10;;;;;;4992711;28;20014;-16
2023/10/05 03:14:50;;;;;;;1.45;0.70;;;16.20;83.10;;;;;;4986559;28;20045;-16
2023/10/05 03:17:21;;;;;;;3.22;1.00;;;16.20;83.20;;;;;;4984276;28;20019;-16
2023/10/05 03:19:50;;;;;;;1.38;0.70;;;16.20;83.10;;;;;;4988775;28;20708;-16
2023/10/05 03:22:16;;;;;;;1.23;0.60;;;16.20;83.20;;;;;;4977792;28;20293;-16
2023/10/05 03:24:45;;;;;;;2.17;0.73;;;16.20;83.00;;;;;;4987908;28;20454;-16
2023/10/05 03:27:11;;;;;;;1.75;0.75;;;16.20;83.10;;;;;;4987447;28;20145;-15
2023/10/05 03:29:38;;;;;;;1.58;0.90;;;16.20;83.00;;;;;;4978490;28;20387;-16
2023/10/05 03:34:35;;;;;;;1.67;0.80;;;16.10;83.20;;;;;;4989857;28;20439;-16
2023/10/05 03:37:08;;;;;;;2.08;0.90;;;16.10;83.00;;;;;;4987470;28;20669;-16
2023/10/05 03:39:39;;;;;;;1.65;0.80;;;16.10;83.10;;;;;;4979177;28;20030;-16
2023/10/05 03:42:13;;;;;;;2.72;0.90;;;16.00;82.80;;;;;;4984793;28;20454;-16
2023/10/05 03:44:39;;;;;;;3.20;0.90;;;16.00;82.80;;;;;;4990656;28;20065;-16
2023/10/05 03:47:05;;;;;;;1.80;0.80;;;16.00;82.90;;;;;;4972053;28;20758;-16
2023/10/05 03:49:31;;;;;;;2.63;1.10;;;15.90;82.80;;;;;;4981462;28;20037;-16
2023/10/05 03:51:56;;;;;;;1.85;0.80;;;15.90;83.00;;;;;;4986318;28;20239;-16
2023/10/05 03:54:25;;;;;;;1.67;0.80;;;15.90;83.10;;;;;;4982756;28;20414;-16
2023/10/05 03:57:04;;;;;;;2.15;0.90;;;15.90;83.10;;;;;;4979396;28;20120;-17
2023/10/05 03:59:31;;;;;;;2.42;0.80;;;15.80;83.10;;;;;;4990438;28;20062;-16
2023/10/05 04:01:59;;;;;;;2.65;1.00;;;15.80;83.30;;;;;;4969908;28;20030;-17
2023/10/05 04:04:26;;;;;;;2.03;1.00;;;15.80;83.30;;;;;;4980306;28;20033;-16
2023/10/05 04:06:54;;;;;;;2.77;0.87;;;15.80;83.40;;;;;;4986573;28;20659;-16
2023/10/05 04:09:19;;;;;;;2.53;0.82;;;15.80;83.50;;;;;;4976371;28;20559;-17
2023/10/05 04:11:45;;;;;;;1.70;0.68;;;15.80;83.50;;;;;;4981007;28;20092;-16
2023/10/05 04:14:12;;;;;;;1.73;0.80;;;15.80;83.60;;;;;;4991335;28;20029;-16
2023/10/05 04:16:38;;;;;;;2.70;0.80;;;15.70;83.60;;;;;;4982093;28;20025;-16
2023/10/05 04:19:04;;;;;;;2.28;0.70;;;15.80;83.70;;;;;;4956858;28;20037;-17
2023/10/05 04:21:31;;;;;;;2.03;0.80;;;15.70;83.60;;;;;;5005639;28;20116;-17
2023/10/05 04:23:59;;;;;;;2.15;0.90;;;15.70;83.60;;;;;;4969829;28;20427;-16
2023/10/05 04:26:48;;;;;;;1.80;0.80;;;15.70;83.60;;;;;;4988464;28;20112;-17
2023/10/05 04:29:14;;;;;;;2.97;0.85;;;15.80;83.90;;;;;;4990925;28;20065;-16
2023/10/05 04:31:41;;;;;;;1.73;0.88;;;15.70;83.70;;;;;;4978834;28;20046;-16
2023/10/05 04:34:11;;;;;;;2.25;0.80;;;15.80;84.00;;;;;;4983439;28;20232;-17
2023/10/05 04:36:40;;;;;;;2.33;0.90;;;14.70;87.30;;;;;;4977293;28;20458;-16
2023/10/05 04:39:07;;;;;;;2.30;1.00;;;15.70;83.90;;;;;;4978820;28;20587;-17
2023/10/05 04:41:39;;;;;;;1.80;0.75;;;15.70;84.00;;;;;;4999571;28;20026;-16
2023/10/05 04:44:12;;;;;;;2.17;1.00;;;15.70;84.10;;;;;;4985225;28;20056;-17
2023/10/05 04:46:48;;;;;;;1.50;0.68;;;15.70;84.10;;;;;;4984079;28;20034;-16
2023/10/05 04:49:18;;;;;;;1.10;0.70;;;15.70;84.20;;;;;;4990292;28;20022;-16
2023/10/05 04:51:44;;;;;;;1.63;0.70;;;15.70;87.30;;;;;;4980320;28;20041;-16
2023/10/05 04:54:12;;;;;;;2.35;0.80;;;15.70;84.20;;;;;;4996480;28;20108;-16
2023/10/05 05:07:01;;;;;;;1.30;0.68;;;15.70;84.40;;;;;;4985823;28;20072;-16
2023/10/05 05:09:34;;;;;;;1.40;0.65;;;15.70;84.10;;;;;;4996152;28;20056;-16
2023/10/05 05:12:04;;;;;;;2.65;0.80;;;15.60;84.20;;;;;;4992188;28;20266;-17
2023/10/05 05:14:41;;;;;;;1.60;0.73;;;15.70;84.10;;;;;;5000786;28;20041;-16
2023/10/05 05:17:07;;;;;;;2.22;0.90;;;15.60;84.30;;;;;;5005623;28;20224;-16
2023/10/05 05:19:36;;;;;;;2.58;1.20;;;15.70;84.10;;;;;;4992287;28;20053;-16
2023/10/05 05:22:02;;;;;;;1.40;0.75;;;15.70;84.30;;;;;;4997435;28;23395;-16
2023/10/05 05:24:29;;;;;;;1.40;0.80;;;15.60;84.30;;;;;;4980903;28;20394;-16
2023/10/05 05:27:10;;;;;;;2.43;1.00;;;15.50;84.20;;;;;;4994372;28;20034;-18
2023/10/05 05:29:36;;;;;;;1.50;0.70;;;15.50;84.30;;;;;;4984596;28;20375;-16
2023/10/05 05:32:10;;;;;;;1.95;0.93;;;15.50;84.30;;;;;;5005503;28;20234;-17
2023/10/05 05:34:42;;;;;;;2.05;0.77;;;15.40;87.80;;;;;;4996711;28;20402;-16
2023/10/05 05:37:08;;;;;;;1.27;0.75;;;15.50;84.80;;;;;;4998601;28;20248;-16
2023/10/05 05:39:40;;;;;;;3.27;0.97;;;15.50;84.60;;;;;;4999237;28;20034;-16
2023/10/05 05:42:13;;;;;;;2.63;0.88;;;15.50;84.50;;;;;;4968945;28;20566;-17
2023/10/05 05:44:39;;;;;;;2.35;1.00;;;15.50;84.60;;;;;;5001419;28;20022;-16
2023/10/05 05:47:14;;;;;;;2.95;0.85;;;15.50;84.60;;;;;;4974514;28;20033;-16
2023/10/05 05:49:40;;;;;;;2.90;1.00;;;15.50;84.60;;;;;;4991060;28;20079;-16
2023/10/05 05:52:10;;;;;;;1.23;0.70;;;15.40;84.70;;;;;;5007518;28;20095;-17
2023/10/05 05:54:36;;;;;;;1.02;0.70;;;15.40;84.70;;;;;;4951787;28;20059;-16
2023/10/05 05:57:11;;;;;;;2.25;0.80;;;16.40;90.30;;;;;;4977081;28;20346;-16
2023/10/05 05:59:41;;;;;;;1.75;0.90;;;15.40;84.70;;;;;;4983879;28;20022;-16
2023/10/05 06:02:08;;;;;;;1.53;0.80;;;15.40;84.70;;;;;;5011818;28;21031;-16
2023/10/05 06:04:41;;;;;;;1.27;0.70;;;15.40;84.90;;;;;;4995073;28;21492;-16
2023/10/05 06:07:13;;;;;;;2.00;0.95;;;15.40;85.20;;;;;;5000594;28;20076;-16
2023/10/05 06:09:43;;;;;;;1.52;0.90;;;15.40;85.00;;;;;;4990987;28;20091;-16
2023/10/05 06:12:12;;;;;;;1.80;0.80;;;15.40;85.20;;;;;;4986165;28;20026;-16
2023/10/05 06:14:40;;;;;;;2.43;0.70;;;15.40;85.00;;;;;;4983308;28;20032;-16
2023/10/05 06:17:07;;;;;;;1.67;1.10;;;15.40;85.00;;;;;;5009740;28;20025;-16
2023/10/05 06:19:33;;;;;;;1.67;0.90;;;15.40;85.20;;;;;;4976826;28;20029;-16
2023/10/05 06:21:59;;;;;;;2.28;0.80;;;15.30;85.20;;;;;;4982867;28;20610;-16
2023/10/05 06:24:24;;;;;;;1.70;0.80;;;15.40;85.30;;;;;;4996044;28;20026;-16
2023/10/05 06:26:50;;;;;;;1.85;0.93;;;15.30;85.40;;;;;;4977321;28;20033;-16
2023/10/05 06:29:16;;;;;;;3.03;0.70;;;15.40;85.50;;;;;;4997739;28;20017;-16
2023/10/05 06:31:43;;;;;;;2.47;0.70;;;15.40;85.50;;;;;;5008820;28;20041;-16
2023/10/05 06:34:09;;;;;;;1.93;0.90;;;15.40;85.60;;;;;;4992244;28;20033;-16
2023/10/05 06:36:39;;;;;;;1.73;0.80;;;15.30;85.70;;;;;;4960271;28;20026;-15
2023/10/05 06:39:14;;;;;;;1.67;0.82;;;15.40;86.20;;;;;;4993534;28;20382;-16
2023/10/05 06:41:43;;;;;;;2.63;1.00;;;15.50;86.10;;;;;;5001381;28;20021;-16
2023/10/05 06:44:10;;;;;;;2.60;1.00;;;15.50;86.40;;;;;;4986671;28;21058;-16
2023/10/05 06:46:37;;;;;;;1.73;0.90;;;15.50;86.20;;;;;;4967821;28;20423;-16
2023/10/05 06:49:05;;;;;;;1.17;0.65;;;15.60;86.20;;;;;;5011269;28;20021;-16
2023/10/05 06:51:31;;;;;;;1.90;0.93;;;15.60;86.20;;;;;;4990058;28;20034;-16
2023/10/05 06:53:57;;;;;;;2.83;1.08;;;15.60;86.30;;;;;;4987836;28;20029;-16
2023/10/05 06:56:24;;;;;;;2.17;0.90;;;15.70;86.40;;;;;;4994216;28;20026;-16
2023/10/05 06:58:50;;;;;;;2.67;0.80;;;15.70;86.50;;;;;;4996241;28;20506;-16
2023/10/05 07:01:20;;;;;;;3.75;0.85;;;15.80;86.60;;;;;;4985861;28;20045;-16
2023/10/05 07:03:52;;;;;;;2.85;0.90;;;15.80;86.60;;;;;;5003511;28;20461;-16
2023/10/05 07:06:29;;;;;;;2.40;0.90;;;15.80;86.60;;;;;;4986114;28;20160;-17
2023/10/05 07:08:55;;;;;;;1.53;0.87;;;15.90;86.60;;;;;;4962637;28;20073;-16
2023/10/05 07:11:22;;;;;;;1.65;0.80;;;15.90;86.60;;;;;;4997929;28;20029;-18
2023/10/05 07:13:49;;;;;;;3.05;1.15;;;16.00;86.60;;;;;;4991095;28;20072;-16
2023/10/05 07:16:15;;;;;;;1.73;0.80;;;16.00;86.60;;;;;;5007455;28;20030;-16
2023/10/05 07:18:41;;;;;;;3.28;1.20;;;16.00;86.60;;;;;;5003087;28;20680;-16
2023/10/05 07:21:10;;;;;;;1.97;0.90;;;16.10;86.70;;;;;;4989285;28;20021;-16
2023/10/05 07:23:39;;;;;;;1.65;0.80;;;16.10;86.70;;;;;;4997490;28;20546;-16
2023/10/05 07:26:06;;;;;;;3.10;1.20;;;16.10;86.90;;;;;;5012719;28;20653;-16
2023/10/05 07:28:36;;;;;;;1.73;0.77;;;16.20;86.80;;;;;;5000050;28;20113;-16
2023/10/05 07:31:05;;;;;;;2.70;1.10;;;16.20;86.90;;;;;;4997731;28;20062;-16
2023/10/05 07:33:33;;;;;;;1.97;1.00;;;16.20;86.80;;;;;;5014841;28;20057;-16
2023/10/05 07:36:00;;;;;;;6.03;1.55;;;16.30;87.00;;;;;;4980375;28;20212;-16
2023/10/05 07:38:28;;;;;;;2.50;1.10;;;16.30;87.00;;;;;;4997695;28;20018;-16
2023/10/05 07:40:55;;;;;;;2.45;0.90;;;16.30;87.00;;;;;;4976312;28;20040;-16
2023/10/05 07:43:21;;;;;;;2.25;1.00;;;16.40;87.00;;;;;;5000983;28;21002;-16
2023/10/05 07:45:47;;;;;;;4.00;1.00;;;16.40;87.00;;;;;;5003494;28;20026;-16
2023/10/05 07:48:12;;;;;;;2.72;1.38;;;16.50;87.00;;;;;;4979060;28;20030;-16
2023/10/05 07:50:38;;;;;;;3.27;0.90;;;16.50;86.90;;;;;;4997054;28;20037;-16
2023/10/05 07:53:04;;;;;;;1.75;0.90;;;16.50;86.90;;;;;;4989422;28;20033;-16
2023/10/05 07:55:31;;;;;;;3.05;1.00;;;16.60;86.90;;;;;;5003331;28;20049;-16
2023/10/05 07:57:57;;;;;;;3.42;0.90;;;16.60;87.00;;;;;;5004701;28;20116;-16
2023/10/05 08:00:23;;;;;;;2.00;0.83;;;16.60;87.50;;;;;;4999465;28;20351;-16
2023/10/05 08:02:48;;;;;;;2.35;1.05;;;16.60;86.80;;;;;;4967464;28;20052;-16
2023/10/05 08:05:17;;;;;;;4.15;1.23;;;16.70;86.80;;;;;;5006015;28;20267;-16
2023/10/05 08:07:46;;;;;;;2.00;1.10;;;16.70;86.70;;;;;;4989383;28;20029;-16
2023/10/05 08:10:19;;;;;;;5.13;1.50;;;16.70;86.70;;;;;;5000049;28;21037;-17
2023/10/05 08:12:47;;;;;;;3.60;1.50;;;16.70;86.70;;;;;;4985461;28;20380;-16
2023/10/05 08:15:14;;;;;;;2.78;1.33;;;16.70;86.70;;;;;;4994127;28;20057;-16
2023/10/05 08:17:40;;;;;;;3.58;1.10;;;16.70;86.70;;;;;;4996021;28;20509;-17
2023/10/05 08:20:07;;;;;;;2.50;1.30;;;16.70;86.80;;;;;;4960063;28;20116;-16
2023/10/05 08:22:34;;;;;;;3.38;1.30;;;16.70;86.90;;;;;;4992762;28;20018;-17
2023/10/05 08:25:00;;;;;;;4.70;1.83;;;16.80;87.00;;;;;;4970916;28;20346;-16
2023/10/05 08:27:26;;;;;;;5.75;1.58;;;16.80;87.00;;;;;;5000604;28;20036;-17
2023/10/05 08:29:52;;;;;;;4.40;1.70;;;16.80;87.10;;;;;;4981225;28;20029;-16
2023/10/05 08:32:24;;;;;;;3.70;1.43;;;16.90;87.20;;;;;;4987540;28;20049;-16
2023/10/05 08:34:51;;;;;;;3.33;1.42;;;16.90;87.20;;;;;;5007200;28;20423;-16
2023/10/05 08:37:19;;;;;;;4.60;1.60;;;16.90;87.20;;;;;;5007307;28;20395;-16
2023/10/05 08:39:46;;;;;;;2.83;1.27;;;17.00;87.20;;;;;;4983232;28;20040;-16
2023/10/05 08:42:14;;;;;;;2.70;1.13;;;17.00;87.20;;;;;;4991019;28;20021;-16
2023/10/05 08:44:42;;;;;;;4.90;1.30;;;17.00;87.40;;;;;;5008700;28;20034;-16
2023/10/05 08:47:12;;;;;;;3.58;1.20;;;17.10;87.40;;;;;;4994276;28;20053;-16
2023/10/05 08:49:43;;;;;;;2.22;1.00;;;17.10;87.60;;;;;;4981439;28;20038;-16
2023/10/05 08:52:20;;;;;;;2.70;1.23;;;17.20;87.50;;;;;;4975704;28;20395;-15
2023/10/05 08:54:47;;;;;;;3.38;1.20;;;17.20;87.70;;;;;;5002017;28;20430;-16
2023/10/05 08:57:16;;;;;;;2.73;1.17;;;17.20;87.40;;;;;;4991355;28;20042;-15
2023/10/05 08:59:45;;;;;;;2.70;1.05;;;17.30;87.50;;;;;;4988376;28;20030;-15
2023/10/05 09:02:18;;;;;;;3.15;1.05;;;17.40;87.40;;;;;;4994432;28;20076;-16
2023/10/05 09:04:59;;;;;;;2.95;1.15;;;17.40;87.20;;;;;;4985693;28;20566;-16
2023/10/05 09:07:39;;;;;;;3.17;0.98;;;17.40;87.40;;;;;;5008516;28;20036;-15
2023/10/05 09:10:24;;;;;;;3.63;1.10;;;17.50;87.10;;;;;;4992728;28;20029;-16
2023/10/05 09:12:58;;;;;;;5.90;1.20;;;17.50;87.10;;;;;;4982982;28;20070;-16
2023/10/05 09:17:58;;;;;;;2.38;1.05;;;17.50;86.90;;;;;;4985990;28;20393;-16
2023/10/05 09:20:30;;;;;;;2.80;1.15;;;17.50;87.10;;;;;;4995436;28;20544;-16
2023/10/05 09:23:07;;;;;;;4.77;1.20;;;17.60;86.90;;;;;;5003375;28;20036;-16
2023/10/05 09:25:34;;;;;;;3.50;1.02;;;17.60;87.10;;;;;;4990171;28;20128;-16
2023/10/05 09:28:12;;;;;;;3.10;1.08;;;17.60;87.00;;;;;;4953066;28;20089;-16
2023/10/05 09:30:56;;;;;;;3.72;1.20;;;17.60;86.90;;;;;;5006022;28;20494;-16
2023/10/05 09:33:25;;;;;;;3.78;1.20;;;17.60;87.00;;;;;;4978919;28;20037;-16
2023/10/05 09:36:06;;;;;;;2.77;1.20;;;17.60;86.70;;;;;;4995094;28;20523;-16
2023/10/05 09:38:40;;;;;;;4.30;1.73;;;17.60;86.60;;;;;;5007152;28;20446;-16
2023/10/05 09:41:08;;;;;;;2.60;1.23;;;17.60;86.80;;;;;;4972157;28;20127;-16
2023/10/05 09:43:42;;;;;;;3.67;1.17;;;17.60;87.40;;;;;;4999986;28;20437;-16
2023/10/05 09:46:09;;;;;;;2.45;0.90;;;17.60;86.80;;;;;;4992723;28;20014;-16
2023/10/05 09:48:39;;;;;;;2.00;1.00;;;17.60;86.80;;;;;;4978871;28;20318;-16
2023/10/05 09:51:10;;;;;;;1.85;0.90;;;17.60;86.80;;;;;;4996383;28;20068;-16
2023/10/05 09:53:38;;;;;;;2.17;1.02;;;17.60;86.80;;;;;;5002637;28;20329;-16
2023/10/05 09:56:04;;;;;;;3.40;1.20;;;17.60;86.90;;;;;;5003082;28;20048;-16
2023/10/05 09:58:30;;;;;;;2.35;1.08;;;17.70;86.90;;;;;;4973299;28;20707;-17
2023/10/05 10:00:59;;;;;;;3.93;1.23;;;17.70;87.00;;;;;;4988293;28;20380;-16
2023/10/05 10:03:25;;;;;;;2.00;0.95;;;17.70;87.00;;;;;;4963642;28;20487;-16
2023/10/05 10:06:08;;;;;;;2.97;1.10;;;17.80;87.00;;;;;;4976697;28;20032;-16
2023/10/05 10:08:42;;;;;;;1.52;1.00;;;17.80;87.00;;;;;;4990414;28;20592;-16
2023/10/05 10:11:24;;;;;;;1.87;1.00;;;17.90;87.10;;;;;;4966993;28;20104;-16
2023/10/05 10:14:00;;;;;;;1.98;1.00;;;17.90;87.40;;;;;;4974932;28;20030;-15
2023/10/05 10:16:27;;;;;;;1.63;1.00;;;17.90;87.50;;;;;;5002988;28;20299;-16
2023/10/05 10:19:18;;;;;;;2.10;1.02;;;18.00;87.50;;;;;;4947702;28;20048;-16
2023/10/05 10:21:53;;;;;;;1.83;1.00;;;18.10;87.70;;;;;;4999736;28;20106;-16
2023/10/05 10:24:19;;;;;;;1.60;0.83;;;18.20;87.70;;;;;;4989622;28;20037;-16
2023/10/05 10:27:15;;;;;;;2.97;1.10;;;18.30;87.70;;;;;;5008169;28;20041;-16
2023/10/05 10:29:51;;;;;;;2.47;1.00;;;18.40;87.60;;;;;;4989918;28;20112;-16
2023/10/05 10:32:22;;;;;;;2.67;1.10;;;18.50;87.70;;;;;;4977616;28;20231;-16
2023/10/05 10:34:55;;;;;;;2.25;1.20;;;18.60;87.90;;;;;;4976720;28;20045;-16
2023/10/05 10:37:36;;;;;;;1.93;1.10;;;18.70;87.90;;;;;;4973168;28;20748;-16
2023/10/05 10:40:25;;;;;;;3.33;1.20;;;18.80;87.60;;;;;;5006738;28;20603;-16
2023/10/05 10:45:40;;;;;;;2.15;0.90;;;19.20;88.60;;;;;;4991527;28;20473;-16
2023/10/05 10:48:12;;;;;;;2.60;1.00;;;19.40;89.10;;;;;;5005813;28;20414;-16
2023/10/05 10:50:39;;;;;;;2.93;1.20;;;19.60;89.80;;;;;;5001898;28;20142;-17
2023/10/05 10:53:18;;;;;;;3.03;1.17;;;19.90;89.50;;;;;;4980344;28;20037;-16
2023/10/05 10:56:04;;;;;;;4.40;1.30;;;20.20;87.90;;;;;;4997677;28;20053;-16
2023/10/05 10:58:32;;;;;;;2.88;1.15;;;20.50;87.70;;;;;;4992880;28;20210;-17
2023/10/05 11:01:04;;;;;;;2.53;1.15;;;20.70;89.60;;;;;;4981866;28;20046;-19
2023/10/05 11:03:32;;;;;;;2.10;1.20;;;20.90;88.80;;;;;;4994030;28;20179;-16
2023/10/05 11:06:00;;;;;;;2.65;1.20;;;21.20;89.30;;;;;;4976794;28;20018;-16
2023/10/05 11:08:30;;;;;;;3.42;1.30;;;21.40;87.70;;;;;;4978978;28;20392;-16
2023/10/05 11:11:09;;;;;;;4.07;1.20;;;21.50;87.50;;;;;;4993805;28;20050;-19
2023/10/05 11:16:43;;;;;;;1.57;1.10;;;22.00;87.80;;;;;;4965675;28;20147;-17
2023/10/05 11:19:17;;;;;;;2.47;1.23;;;22.30;88.60;;;;;;4990766;28;20518;-17
2023/10/05 11:21:46;;;;;;;3.38;1.20;;;22.60;87.50;;;;;;4977432;28;20025;-17
2023/10/05 11:24:16;;;;;;;3.30;1.23;;;22.80;86.40;;;;;;4960666;28;20030;-16
2023/10/05 11:29:22;;;;;;;3.43;1.00;;;23.20;85.60;;;;;;4971637;28;20162;-17
2023/10/05 11:31:50;;;;;;;2.75;1.20;;;23.30;85.60;;;;;;4990923;28;20029;-17
2023/10/05 11:34:19;;;;;;;4.75;1.02;;;23.40;85.10;;;;;;4986727;28;20021;-16
2023/10/05 11:36:47;;;;;;;2.50;1.10;;;23.60;84.80;;;;;;4981719;28;20035;-16
2023/10/05 11:39:22;;;;;;;2.08;1.08;;;23.70;84.90;;;;;;4979500;28;20505;-16
2023/10/05 11:41:51;;;;;;;3.23;1.20;;;23.90;83.90;;;;;;4988402;28;20022;-16
2023/10/05 11:44:23;;;;;;;1.85;1.10;;;23.90;82.80;;;;;;4992185;28;20045;-16
2023/10/05 11:46:59;;;;;;;3.20;1.15;;;24.00;82.50;;;;;;4970150;28;20053;-16
2023/10/05 11:49:30;;;;;;;2.78;1.10;;;24.10;82.20;;;;;;5001407;28;20029;-16
2023/10/05 11:51:57;;;;;;;2.05;1.00;;;24.10;82.10;;;;;;4974401;28;20026;-16
2023/10/05 11:54:24;;;;;;;3.43;1.20;;;24.20;81.80;;;;;;4979986;28;20610;-16
2023/10/05 11:56:53;;;;;;;1.90;0.98;;;24.30;80.70;;;;;;4995625;28;20031;-16
2023/10/05 11:59:31;;;;;;;2.78;1.17;;;24.30;80.00;;;;;;4983704;28;20138;-16
2023/10/05 12:01:57;;;;;;;2.42;1.10;;;24.20;77.90;;;;;;4975197;28;20380;-16
2023/10/05 12:04:29;;;;;;;2.92;1.20;;;24.20;79.30;;;;;;4985971;28;20526;-16
2023/10/05 12:07:00;;;;;;;3.27;1.10;;;24.20;79.30;;;;;;4992715;28;20030;-16
2023/10/05 12:09:34;;;;;;;2.65;1.05;;;24.20;79.10;;;;;;4974769;28;20756;-16
2023/10/05 12:12:01;;;;;;;2.45;1.20;;;24.20;78.30;;;;;;4988102;28;20516;-16
2023/10/05 12:14:27;;;;;;;3.22;1.00;;;24.30;79.30;;;;;;4999269;28;20041;-17
2023/10/05 12:16:57;;;;;;;2.67;1.17;;;24.40;79.70;;;;;;4973138;28;20048;-16
2023/10/05 12:19:30;;;;;;;2.20;1.10;;;24.50;79.50;;;;;;4984130;28;20039;-16
2023/10/05 12:21:57;;;;;;;2.17;0.90;;;24.70;77.90;;;;;;4975239;28;20021;-16
2023/10/05 12:24:23;;;;;;;1.73;0.98;;;24.70;78.30;;;;;;4985168;28;20048;-16
2023/10/05 12:26:50;;;;;;;3.43;1.03;;;24.80;78.40;;;;;;4981644;28;20102;-16
2023/10/05 12:29:16;;;;;;;3.20;1.00;;;24.90;77.50;;;;;;4988494;28;20388;-16
2023/10/05 12:31:47;;;;;;;3.15;1.00;;;24.90;77.10;;;;;;4972879;28;20041;-16
2023/10/05 12:34:16;;;;;;;2.28;1.10;;;24.90;76.40;;;;;;4986140;28;20604;-16
2023/10/05 12:36:45;;;;;;;2.25;1.10;;;24.90;75.80;;;;;;4990755;28;20030;-16
2023/10/05 12:39:12;;;;;;;2.83;1.00;;;25.00;76.50;;;;;;4991424;28;20236;-16
2023/10/05 12:42:00;;;;;;;3.47;1.10;;;25.00;77.00;;;;;;4979705;28;20393;-16
2023/10/05 12:44:24;;;;;;;3.17;1.00;;;25.20;77.90;;;;;;4990855;28;20057;-16
2023/10/05 12:46:49;;;;;;;2.50;1.00;;;25.40;78.10;;;;;;4991904;28;20117;-16
2023/10/05 12:49:16;;;;;;;2.80;1.00;;;25.60;77.50;;;;;;4967706;28;20022;-16
2023/10/05 12:51:47;;;;;;;1.65;1.08;;;25.70;76.00;;;;;;4985787;28;20032;-15
2023/10/05 12:54:19;;;;;;;3.97;1.25;;;25.80;74.70;;;;;;4982530;28;20044;-16
2023/10/05 12:56:51;;;;;;;1.90;0.93;;;25.90;76.40;;;;;;4998202;28;20053;-16
2023/10/05 12:59:18;;;;;;;2.27;1.20;;;26.00;74.90;;;;;;5009677;28;20064;-16
2023/10/05 13:01:46;;;;;;;3.10;0.95;;;26.10;74.70;;;;;;4977155;28;20025;-16
2023/10/05 13:04:13;;;;;;;3.00;1.23;;;26.10;73.20;;;;;;4974423;28;20128;-16
2023/10/05 13:06:40;;;;;;;2.35;1.00;;;26.00;72.10;;;;;;5009810;28;20155;-17
2023/10/05 13:09:13;;;;;;;1.70;0.90;;;25.90;72.50;;;;;;5005433;28;20026;-16
2023/10/05 13:11:47;;;;;;;3.83;1.10;;;25.80;72.30;;;;;;4984438;28;20738;-16
2023/10/05 13:14:14;;;;;;;2.17;0.90;;;25.70;71.10;;;;;;4994669;28;20080;-16
2023/10/05 13:16:54;;;;;;;3.50;1.00;;;25.60;71.50;;;;;;4993071;28;20116;-16
2023/10/05 13:19:20;;;;;;;1.73;1.10;;;25.50;70.70;;;;;;4975004;28;20137;-16
2023/10/05 13:21:46;;;;;;;3.03;0.90;;;25.40;70.90;;;;;;5007693;28;20099;-16
2023/10/05 13:24:12;;;;;;;2.17;0.80;;;25.30;70.70;;;;;;4985616;28;20095;-16
2023/10/05 13:26:44;;;;;;;2.13;1.00;;;25.10;70.60;;;;;;4985890;28;22003;-16
2023/10/05 13:29:17;;;;;;;2.15;1.20;;;25.00;70.30;;;;;;5007009;28;20022;-16
2023/10/05 13:31:45;;;;;;;2.17;1.08;;;24.90;69.60;;;;;;4996930;28;20474;-16
2023/10/05 13:34:16;;;;;;;2.03;1.00;;;24.80;69.90;;;;;;4999173;28;20049;-16
2023/10/05 13:36:43;;;;;;;1.70;0.80;;;24.80;70.50;;;;;;5001373;28;20076;-16
2023/10/05 13:39:12;;;;;;;1.88;0.90;;;24.70;70.40;;;;;;4991641;28;20115;-16